sensor_id;sensor_type;location;lat;lon;timestamp;P1;durP1;ratioP1;P2;durP2;ratioP2
3022;SDS011;1521;53.584;9.938;2023-02-14T00:01:40;54.97;;;23.10;;
3022;SDS011;1521;53.584;9.938;2023-02-14T00:04:06;56.63;;;23.23;;
3022;SDS011;1521;53.584;9.938;2023-02-14T00:06:32;59.90;;;24.23;;
3022;SDS011;1521;53.584;9.938;2023-02-14T00:09:00;55.30;;;22.83;;
3022;SDS011;1521;53.584;9.938;2023-02-14T00:11:26;56.13;;;23.50;;
3022;SDS011;1521;53.584;9.938;2023-02-14T00:13:52;53.87;;;22.63;;
3022;SDS011;1521;53.584;9.938;2023-02-14T00:16:37;59.93;;;23.90;;
3022;SDS011;1521;53.584;9.938;2023-02-14T00:19:02;58.50;;;23.53;;
3022;SDS011;1521;53.584;9.938;2023-02-14T00:21:29;53.00;;;23.10;;
3022;SDS011;1521;53.584;9.938;2023-02-14T00:24:06;56.87;;;23.07;;
3022;SDS011;1521;53.584;9.938;2023-02-14T00:26:34;61.40;;;23.60;;
3022;SDS011;1521;53.584;9.938;2023-02-14T00:29:02;56.63;;;23.17;;
3022;SDS011;1521;53.584;9.938;2023-02-14T00:31:29;52.20;;;22.80;;
3022;SDS011;1521;53.584;9.938;2023-02-14T00:33:55;52.10;;;23.20;;
3022;SDS011;1521;53.584;9.938;2023-02-14T00:36:21;53.30;;;23.30;;
3022;SDS011;1521;53.584;9.938;2023-02-14T00:38:46;54.50;;;23.63;;
3022;SDS011;1521;53.584;9.938;2023-02-14T00:41:12;61.67;;;24.83;;
3022;SDS011;1521;53.584;9.938;2023-02-14T00:43:46;59.27;;;24.50;;
3022;SDS011;1521;53.584;9.938;2023-02-14T00:46:13;54.03;;;24.03;;
3022;SDS011;1521;53.584;9.938;2023-02-14T00:48:39;58.57;;;25.50;;
3022;SDS011;1521;53.584;9.938;2023-02-14T00:51:05;57.00;;;23.53;;
3022;SDS011;1521;53.584;9.938;2023-02-14T00:53:31;61.77;;;24.07;;
3022;SDS011;1521;53.584;9.938;2023-02-14T00:55:56;59.03;;;25.13;;
3022;SDS011;1521;53.584;9.938;2023-02-14T00:58:22;54.13;;;23.50;;
3022;SDS011;1521;53.584;9.938;2023-02-14T01:00:47;54.37;;;23.53;;
3022;SDS011;1521;53.584;9.938;2023-02-14T01:03:13;54.53;;;23.90;;
3022;SDS011;1521;53.584;9.938;2023-02-14T01:05:38;53.70;;;22.77;;
3022;SDS011;1521;53.584;9.938;2023-02-14T01:08:04;51.60;;;22.70;;
3022;SDS011;1521;53.584;9.938;2023-02-14T01:10:30;54.03;;;23.80;;
3022;SDS011;1521;53.584;9.938;2023-02-14T01:12:56;55.27;;;22.43;;
3022;SDS011;1521;53.584;9.938;2023-02-14T01:15:21;55.40;;;22.60;;
3022;SDS011;1521;53.584;9.938;2023-02-14T01:17:47;55.03;;;23.67;;
3022;SDS011;1521;53.584;9.938;2023-02-14T01:20:13;49.23;;;23.50;;
3022;SDS011;1521;53.584;9.938;2023-02-14T01:22:39;56.50;;;23.27;;
3022;SDS011;1521;53.584;9.938;2023-02-14T01:25:05;54.60;;;23.93;;
3022;SDS011;1521;53.584;9.938;2023-02-14T01:27:31;52.00;;;21.93;;
3022;SDS011;1521;53.584;9.938;2023-02-14T01:29:56;43.80;;;21.83;;
3022;SDS011;1521;53.584;9.938;2023-02-14T01:32:22;57.67;;;23.67;;
3022;SDS011;1521;53.584;9.938;2023-02-14T01:34:48;54.53;;;21.90;;
3022;SDS011;1521;53.584;9.938;2023-02-14T01:37:13;49.83;;;22.77;;
3022;SDS011;1521;53.584;9.938;2023-02-14T01:39:39;61.97;;;24.77;;
3022;SDS011;1521;53.584;9.938;2023-02-14T01:42:05;58.83;;;24.40;;
3022;SDS011;1521;53.584;9.938;2023-02-14T01:46:56;53.67;;;22.57;;
3022;SDS011;1521;53.584;9.938;2023-02-14T01:49:27;60.30;;;24.13;;
3022;SDS011;1521;53.584;9.938;2023-02-14T01:51:57;60.10;;;24.80;;
3022;SDS011;1521;53.584;9.938;2023-02-14T01:54:29;53.43;;;23.87;;
3022;SDS011;1521;53.584;9.938;2023-02-14T01:56:57;66.07;;;24.50;;
3022;SDS011;1521;53.584;9.938;2023-02-14T01:59:30;54.57;;;24.27;;
3022;SDS011;1521;53.584;9.938;2023-02-14T02:02:00;55.20;;;23.50;;
3022;SDS011;1521;53.584;9.938;2023-02-14T02:04:44;56.17;;;24.53;;
3022;SDS011;1521;53.584;9.938;2023-02-14T02:07:12;54.10;;;23.93;;
3022;SDS011;1521;53.584;9.938;2023-02-14T02:09:53;55.10;;;24.40;;
3022;SDS011;1521;53.584;9.938;2023-02-14T02:12:24;58.63;;;23.50;;
3022;SDS011;1521;53.584;9.938;2023-02-14T02:14:52;50.67;;;22.93;;
3022;SDS011;1521;53.584;9.938;2023-02-14T02:20:03;55.70;;;23.10;;
3022;SDS011;1521;53.584;9.938;2023-02-14T02:45:30;62.13;;;24.70;;
3022;SDS011;1521;53.584;9.938;2023-02-14T02:49:04;51.97;;;23.47;;
3022;SDS011;1521;53.584;9.938;2023-02-14T02:51:26;62.63;;;25.77;;
3022;SDS011;1521;53.584;9.938;2023-02-14T02:54:40;54.73;;;22.17;;
3022;SDS011;1521;53.584;9.938;2023-02-14T02:57:11;58.10;;;24.77;;
3022;SDS011;1521;53.584;9.938;2023-02-14T02:59:51;57.83;;;23.50;;
3022;SDS011;1521;53.584;9.938;2023-02-14T03:04:55;62.53;;;26.33;;
3022;SDS011;1521;53.584;9.938;2023-02-14T03:07:38;53.13;;;22.97;;
3022;SDS011;1521;53.584;9.938;2023-02-14T03:10:10;54.40;;;24.00;;
3022;SDS011;1521;53.584;9.938;2023-02-14T03:12:48;51.87;;;23.37;;
3022;SDS011;1521;53.584;9.938;2023-02-14T03:15:50;57.57;;;23.20;;
3022;SDS011;1521;53.584;9.938;2023-02-14T03:21:41;60.03;;;24.47;;
3022;SDS011;1521;53.584;9.938;2023-02-14T03:24:29;57.53;;;24.27;;
3022;SDS011;1521;53.584;9.938;2023-02-14T03:27:05;59.17;;;24.20;;
3022;SDS011;1521;53.584;9.938;2023-02-14T03:37:51;60.37;;;24.23;;
3022;SDS011;1521;53.584;9.938;2023-02-14T03:40:43;57.83;;;24.20;;
3022;SDS011;1521;53.584;9.938;2023-02-14T03:43:15;58.97;;;25.43;;
3022;SDS011;1521;53.584;9.938;2023-02-14T03:46:00;60.10;;;26.23;;
3022;SDS011;1521;53.584;9.938;2023-02-14T03:48:31;60.97;;;24.10;;
3022;SDS011;1521;53.584;9.938;2023-02-14T03:50:58;59.70;;;24.30;;
3022;SDS011;1521;53.584;9.938;2023-02-14T03:53:26;56.57;;;24.90;;
3022;SDS011;1521;53.584;9.938;2023-02-14T03:56:01;57.33;;;24.27;;
3022;SDS011;1521;53.584;9.938;2023-02-14T03:58:44;64.30;;;25.17;;
3022;SDS011;1521;53.584;9.938;2023-02-14T04:01:15;65.47;;;25.17;;
3022;SDS011;1521;53.584;9.938;2023-02-14T04:03:46;63.03;;;25.57;;
3022;SDS011;1521;53.584;9.938;2023-02-14T04:06:16;68.67;;;26.60;;
3022;SDS011;1521;53.584;9.938;2023-02-14T04:08:43;70.97;;;27.47;;
3022;SDS011;1521;53.584;9.938;2023-02-14T04:11:09;59.87;;;24.57;;
3022;SDS011;1521;53.584;9.938;2023-02-14T04:13:35;68.53;;;25.67;;
3022;SDS011;1521;53.584;9.938;2023-02-14T04:16:01;63.40;;;25.80;;
3022;SDS011;1521;53.584;9.938;2023-02-14T04:18:27;67.73;;;26.37;;
3022;SDS011;1521;53.584;9.938;2023-02-14T04:21:11;67.57;;;25.20;;
3022;SDS011;1521;53.584;9.938;2023-02-14T04:23:37;67.07;;;26.80;;
3022;SDS011;1521;53.584;9.938;2023-02-14T04:26:03;59.37;;;24.57;;
3022;SDS011;1521;53.584;9.938;2023-02-14T04:28:29;64.53;;;26.10;;
3022;SDS011;1521;53.584;9.938;2023-02-14T04:30:55;65.03;;;26.70;;
3022;SDS011;1521;53.584;9.938;2023-02-14T04:33:24;64.17;;;25.80;;
3022;SDS011;1521;53.584;9.938;2023-02-14T04:35:49;60.77;;;25.00;;
3022;SDS011;1521;53.584;9.938;2023-02-14T04:38:15;61.43;;;24.97;;
3022;SDS011;1521;53.584;9.938;2023-02-14T04:40:40;69.80;;;27.17;;
3022;SDS011;1521;53.584;9.938;2023-02-14T04:43:06;63.13;;;25.93;;
3022;SDS011;1521;53.584;9.938;2023-02-14T04:45:32;62.23;;;26.30;;
3022;SDS011;1521;53.584;9.938;2023-02-14T04:47:57;69.67;;;27.00;;
3022;SDS011;1521;53.584;9.938;2023-02-14T04:50:23;84.53;;;32.67;;
3022;SDS011;1521;53.584;9.938;2023-02-14T04:52:50;84.83;;;36.27;;
3022;SDS011;1521;53.584;9.938;2023-02-14T04:55:16;69.13;;;30.07;;
3022;SDS011;1521;53.584;9.938;2023-02-14T04:57:41;64.33;;;27.13;;
3022;SDS011;1521;53.584;9.938;2023-02-14T05:00:07;68.93;;;27.87;;
3022;SDS011;1521;53.584;9.938;2023-02-14T05:02:33;67.30;;;26.70;;
3022;SDS011;1521;53.584;9.938;2023-02-14T05:04:59;69.97;;;26.33;;
3022;SDS011;1521;53.584;9.938;2023-02-14T05:07:25;67.57;;;26.70;;
3022;SDS011;1521;53.584;9.938;2023-02-14T05:09:50;72.10;;;28.93;;
3022;SDS011;1521;53.584;9.938;2023-02-14T05:12:16;65.30;;;24.97;;
3022;SDS011;1521;53.584;9.938;2023-02-14T05:14:41;69.07;;;27.60;;
3022;SDS011;1521;53.584;9.938;2023-02-14T05:17:07;60.17;;;25.30;;
3022;SDS011;1521;53.584;9.938;2023-02-14T05:19:33;71.00;;;27.37;;
3022;SDS011;1521;53.584;9.938;2023-02-14T05:21:58;75.30;;;27.20;;
3022;SDS011;1521;53.584;9.938;2023-02-14T05:24:24;70.67;;;28.77;;
3022;SDS011;1521;53.584;9.938;2023-02-14T05:26:49;67.07;;;27.27;;
3022;SDS011;1521;53.584;9.938;2023-02-14T05:29:15;68.93;;;27.90;;
3022;SDS011;1521;53.584;9.938;2023-02-14T05:31:40;67.13;;;27.13;;
3022;SDS011;1521;53.584;9.938;2023-02-14T05:34:06;65.17;;;26.33;;
3022;SDS011;1521;53.584;9.938;2023-02-14T05:36:32;70.27;;;27.70;;
3022;SDS011;1521;53.584;9.938;2023-02-14T05:38:57;68.03;;;26.87;;
3022;SDS011;1521;53.584;9.938;2023-02-14T05:41:23;74.90;;;28.17;;
3022;SDS011;1521;53.584;9.938;2023-02-14T05:43:48;65.87;;;28.40;;
3022;SDS011;1521;53.584;9.938;2023-02-14T05:46:14;72.30;;;28.53;;
3022;SDS011;1521;53.584;9.938;2023-02-14T05:48:39;80.53;;;28.20;;
3022;SDS011;1521;53.584;9.938;2023-02-14T05:51:06;64.80;;;27.50;;
3022;SDS011;1521;53.584;9.938;2023-02-14T05:53:33;70.10;;;26.87;;
3022;SDS011;1521;53.584;9.938;2023-02-14T05:55:59;72.47;;;26.50;;
3022;SDS011;1521;53.584;9.938;2023-02-14T05:58:26;63.73;;;26.40;;
3022;SDS011;1521;53.584;9.938;2023-02-14T06:00:51;59.07;;;25.57;;
3022;SDS011;1521;53.584;9.938;2023-02-14T06:03:17;59.33;;;25.47;;
3022;SDS011;1521;53.584;9.938;2023-02-14T06:05:43;70.70;;;26.77;;
3022;SDS011;1521;53.584;9.938;2023-02-14T06:08:08;62.33;;;25.87;;
3022;SDS011;1521;53.584;9.938;2023-02-14T06:10:34;63.37;;;25.87;;
3022;SDS011;1521;53.584;9.938;2023-02-14T06:12:59;70.67;;;27.60;;
3022;SDS011;1521;53.584;9.938;2023-02-14T06:15:25;69.07;;;28.67;;
3022;SDS011;1521;53.584;9.938;2023-02-14T06:17:52;60.50;;;26.10;;
3022;SDS011;1521;53.584;9.938;2023-02-14T06:20:21;69.87;;;26.70;;
3022;SDS011;1521;53.584;9.938;2023-02-14T06:22:48;70.70;;;27.47;;
3022;SDS011;1521;53.584;9.938;2023-02-14T06:25:14;67.73;;;26.80;;
3022;SDS011;1521;53.584;9.938;2023-02-14T06:27:40;65.27;;;25.77;;
3022;SDS011;1521;53.584;9.938;2023-02-14T06:30:06;68.40;;;26.40;;
3022;SDS011;1521;53.584;9.938;2023-02-14T06:32:32;70.63;;;28.07;;
3022;SDS011;1521;53.584;9.938;2023-02-14T06:34:58;61.10;;;25.67;;
3022;SDS011;1521;53.584;9.938;2023-02-14T06:37:23;60.57;;;25.50;;
3022;SDS011;1521;53.584;9.938;2023-02-14T06:39:49;64.30;;;26.43;;
3022;SDS011;1521;53.584;9.938;2023-02-14T06:42:14;56.00;;;23.13;;
3022;SDS011;1521;53.584;9.938;2023-02-14T06:44:40;61.77;;;25.00;;
3022;SDS011;1521;53.584;9.938;2023-02-14T06:47:05;58.03;;;24.67;;
3022;SDS011;1521;53.584;9.938;2023-02-14T06:49:32;61.90;;;26.60;;
3022;SDS011;1521;53.584;9.938;2023-02-14T06:51:58;64.40;;;25.73;;
3022;SDS011;1521;53.584;9.938;2023-02-14T06:54:23;60.13;;;26.30;;
3022;SDS011;1521;53.584;9.938;2023-02-14T06:56:49;68.03;;;27.47;;
3022;SDS011;1521;53.584;9.938;2023-02-14T06:59:14;59.27;;;24.37;;
3022;SDS011;1521;53.584;9.938;2023-02-14T07:01:40;58.40;;;25.47;;
3022;SDS011;1521;53.584;9.938;2023-02-14T07:04:05;56.57;;;24.87;;
3022;SDS011;1521;53.584;9.938;2023-02-14T07:06:31;53.07;;;22.73;;
3022;SDS011;1521;53.584;9.938;2023-02-14T07:08:57;58.70;;;25.53;;
3022;SDS011;1521;53.584;9.938;2023-02-14T07:11:22;49.00;;;22.87;;
3022;SDS011;1521;53.584;9.938;2023-02-14T07:13:48;52.23;;;22.67;;
3022;SDS011;1521;53.584;9.938;2023-02-14T07:16:13;56.70;;;23.33;;
3022;SDS011;1521;53.584;9.938;2023-02-14T07:18:39;47.17;;;22.73;;
3022;SDS011;1521;53.584;9.938;2023-02-14T07:21:04;57.07;;;23.67;;
3022;SDS011;1521;53.584;9.938;2023-02-14T07:23:30;47.30;;;21.60;;
3022;SDS011;1521;53.584;9.938;2023-02-14T07:25:56;55.03;;;22.77;;
3022;SDS011;1521;53.584;9.938;2023-02-14T07:28:22;53.87;;;22.77;;
3022;SDS011;1521;53.584;9.938;2023-02-14T07:30:47;49.40;;;21.87;;
3022;SDS011;1521;53.584;9.938;2023-02-14T07:33:13;52.40;;;23.07;;
3022;SDS011;1521;53.584;9.938;2023-02-14T07:35:39;48.37;;;20.50;;
3022;SDS011;1521;53.584;9.938;2023-02-14T07:38:04;44.67;;;20.63;;
3022;SDS011;1521;53.584;9.938;2023-02-14T07:40:30;42.07;;;21.00;;
3022;SDS011;1521;53.584;9.938;2023-02-14T07:42:56;45.53;;;20.67;;
3022;SDS011;1521;53.584;9.938;2023-02-14T07:45:23;38.53;;;19.00;;
3022;SDS011;1521;53.584;9.938;2023-02-14T07:47:51;41.97;;;20.40;;
3022;SDS011;1521;53.584;9.938;2023-02-14T07:50:18;45.60;;;20.50;;
3022;SDS011;1521;53.584;9.938;2023-02-14T07:52:45;43.80;;;18.97;;
3022;SDS011;1521;53.584;9.938;2023-02-14T07:55:11;43.93;;;19.60;;
3022;SDS011;1521;53.584;9.938;2023-02-14T07:57:37;40.90;;;18.83;;
3022;SDS011;1521;53.584;9.938;2023-02-14T08:00:03;42.67;;;18.90;;
3022;SDS011;1521;53.584;9.938;2023-02-14T08:02:29;38.57;;;19.97;;
3022;SDS011;1521;53.584;9.938;2023-02-14T08:04:55;38.00;;;17.90;;
3022;SDS011;1521;53.584;9.938;2023-02-14T08:07:21;37.40;;;18.60;;
3022;SDS011;1521;53.584;9.938;2023-02-14T08:09:46;40.67;;;20.20;;
3022;SDS011;1521;53.584;9.938;2023-02-14T08:12:12;41.07;;;19.07;;
3022;SDS011;1521;53.584;9.938;2023-02-14T08:14:56;35.63;;;17.93;;
3022;SDS011;1521;53.584;9.938;2023-02-14T08:17:42;39.73;;;19.97;;
3022;SDS011;1521;53.584;9.938;2023-02-14T08:20:08;40.40;;;18.83;;
3022;SDS011;1521;53.584;9.938;2023-02-14T08:22:33;35.00;;;17.67;;
3022;SDS011;1521;53.584;9.938;2023-02-14T08:24:59;35.23;;;18.70;;
3022;SDS011;1521;53.584;9.938;2023-02-14T08:27:25;35.77;;;18.77;;
3022;SDS011;1521;53.584;9.938;2023-02-14T08:29:50;33.47;;;17.53;;
3022;SDS011;1521;53.584;9.938;2023-02-14T08:32:16;42.80;;;18.87;;
3022;SDS011;1521;53.584;9.938;2023-02-14T08:34:44;35.73;;;18.77;;
3022;SDS011;1521;53.584;9.938;2023-02-14T08:37:10;34.87;;;18.37;;
3022;SDS011;1521;53.584;9.938;2023-02-14T08:39:37;39.43;;;18.90;;
3022;SDS011;1521;53.584;9.938;2023-02-14T08:42:03;35.00;;;17.53;;
3022;SDS011;1521;53.584;9.938;2023-02-14T08:44:29;36.33;;;19.07;;
3022;SDS011;1521;53.584;9.938;2023-02-14T08:46:55;32.97;;;17.30;;
3022;SDS011;1521;53.584;9.938;2023-02-14T08:49:20;32.43;;;17.63;;
3022;SDS011;1521;53.584;9.938;2023-02-14T08:51:46;35.27;;;18.20;;
3022;SDS011;1521;53.584;9.938;2023-02-14T08:54:11;38.63;;;18.13;;
3022;SDS011;1521;53.584;9.938;2023-02-14T08:56:37;36.67;;;17.50;;
3022;SDS011;1521;53.584;9.938;2023-02-14T08:59:03;37.60;;;18.40;;
3022;SDS011;1521;53.584;9.938;2023-02-14T09:01:28;36.90;;;19.00;;
3022;SDS011;1521;53.584;9.938;2023-02-14T09:03:54;38.30;;;18.93;;
3022;SDS011;1521;53.584;9.938;2023-02-14T09:06:20;39.67;;;20.00;;
3022;SDS011;1521;53.584;9.938;2023-02-14T09:08:46;40.13;;;18.87;;
3022;SDS011;1521;53.584;9.938;2023-02-14T09:11:13;37.23;;;18.20;;
3022;SDS011;1521;53.584;9.938;2023-02-14T09:13:42;41.00;;;18.70;;
3022;SDS011;1521;53.584;9.938;2023-02-14T09:16:10;35.97;;;18.03;;
3022;SDS011;1521;53.584;9.938;2023-02-14T09:18:37;36.83;;;19.20;;
3022;SDS011;1521;53.584;9.938;2023-02-14T09:21:10;34.97;;;18.70;;
3022;SDS011;1521;53.584;9.938;2023-02-14T09:23:40;38.47;;;19.23;;
3022;SDS011;1521;53.584;9.938;2023-02-14T09:26:06;39.77;;;19.20;;
3022;SDS011;1521;53.584;9.938;2023-02-14T09:28:33;34.33;;;18.43;;
3022;SDS011;1521;53.584;9.938;2023-02-14T09:31:07;34.73;;;18.50;;
3022;SDS011;1521;53.584;9.938;2023-02-14T09:33:34;37.37;;;19.00;;
3022;SDS011;1521;53.584;9.938;2023-02-14T09:36:18;34.53;;;17.17;;
3022;SDS011;1521;53.584;9.938;2023-02-14T09:39:02;36.20;;;17.80;;
3022;SDS011;1521;53.584;9.938;2023-02-14T09:41:32;38.43;;;18.23;;
3022;SDS011;1521;53.584;9.938;2023-02-14T09:44:20;40.23;;;18.33;;
3022;SDS011;1521;53.584;9.938;2023-02-14T09:46:52;36.53;;;18.97;;
3022;SDS011;1521;53.584;9.938;2023-02-14T09:49:27;42.47;;;20.53;;
3022;SDS011;1521;53.584;9.938;2023-02-14T09:52:00;41.17;;;18.70;;
3022;SDS011;1521;53.584;9.938;2023-02-14T09:54:31;40.37;;;20.23;;
3022;SDS011;1521;53.584;9.938;2023-02-14T09:59:52;43.77;;;20.93;;
3022;SDS011;1521;53.584;9.938;2023-02-14T10:02:36;45.90;;;21.37;;
3022;SDS011;1521;53.584;9.938;2023-02-14T10:10:35;43.33;;;19.70;;
3022;SDS011;1521;53.584;9.938;2023-02-14T10:13:13;38.60;;;19.73;;
3022;SDS011;1521;53.584;9.938;2023-02-14T10:15:44;39.57;;;19.90;;
3022;SDS011;1521;53.584;9.938;2023-02-14T10:18:15;41.23;;;19.03;;
3022;SDS011;1521;53.584;9.938;2023-02-14T10:20:53;38.43;;;19.97;;
3022;SDS011;1521;53.584;9.938;2023-02-14T10:26:11;35.43;;;18.40;;
3022;SDS011;1521;53.584;9.938;2023-02-14T10:28:51;36.50;;;20.40;;
3022;SDS011;1521;53.584;9.938;2023-02-14T10:31:22;34.80;;;19.63;;
3022;SDS011;1521;53.584;9.938;2023-02-14T10:33:51;36.63;;;18.53;;
3022;SDS011;1521;53.584;9.938;2023-02-14T10:39:40;41.57;;;21.60;;
3022;SDS011;1521;53.584;9.938;2023-02-14T10:45:43;35.93;;;18.70;;
3022;SDS011;1521;53.584;9.938;2023-02-14T10:56:40;36.47;;;19.97;;
3022;SDS011;1521;53.584;9.938;2023-02-14T11:02:14;39.93;;;20.33;;
3022;SDS011;1521;53.584;9.938;2023-02-14T11:04:42;35.57;;;19.03;;
3022;SDS011;1521;53.584;9.938;2023-02-14T11:07:14;40.50;;;21.10;;
3022;SDS011;1521;53.584;9.938;2023-02-14T11:09:41;35.07;;;20.90;;
3022;SDS011;1521;53.584;9.938;2023-02-14T11:12:07;37.10;;;20.30;;
3022;SDS011;1521;53.584;9.938;2023-02-14T11:14:34;35.80;;;21.23;;
3022;SDS011;1521;53.584;9.938;2023-02-14T11:20:00;32.90;;;20.70;;
3022;SDS011;1521;53.584;9.938;2023-02-14T11:22:33;40.87;;;19.83;;
3022;SDS011;1521;53.584;9.938;2023-02-14T11:25:06;38.13;;;20.97;;
3022;SDS011;1521;53.584;9.938;2023-02-14T11:27:43;34.20;;;19.97;;
3022;SDS011;1521;53.584;9.938;2023-02-14T11:30:47;34.13;;;21.17;;
3022;SDS011;1521;53.584;9.938;2023-02-14T11:33:11;37.37;;;21.10;;
3022;SDS011;1521;53.584;9.938;2023-02-14T11:35:48;35.10;;;21.30;;
3022;SDS011;1521;53.584;9.938;2023-02-14T11:38:24;34.73;;;21.73;;
3022;SDS011;1521;53.584;9.938;2023-02-14T11:40:54;35.73;;;21.87;;
3022;SDS011;1521;53.584;9.938;2023-02-14T11:43:33;37.20;;;22.27;;
3022;SDS011;1521;53.584;9.938;2023-02-14T11:46:06;35.87;;;21.93;;
3022;SDS011;1521;53.584;9.938;2023-02-14T11:48:32;33.07;;;21.17;;
3022;SDS011;1521;53.584;9.938;2023-02-14T11:53:28;40.87;;;21.80;;
3022;SDS011;1521;53.584;9.938;2023-02-14T11:56:04;34.30;;;21.03;;
3022;SDS011;1521;53.584;9.938;2023-02-14T11:58:36;31.97;;;21.17;;
3022;SDS011;1521;53.584;9.938;2023-02-14T12:01:05;28.13;;;19.03;;
3022;SDS011;1521;53.584;9.938;2023-02-14T12:03:44;33.20;;;20.97;;
3022;SDS011;1521;53.584;9.938;2023-02-14T12:06:11;34.70;;;20.70;;
3022;SDS011;1521;53.584;9.938;2023-02-14T12:08:47;32.40;;;21.07;;
3022;SDS011;1521;53.584;9.938;2023-02-14T12:13:53;30.10;;;19.57;;
3022;SDS011;1521;53.584;9.938;2023-02-14T12:16:21;37.87;;;20.70;;
3022;SDS011;1521;53.584;9.938;2023-02-14T12:19:15;39.73;;;21.93;;
3022;SDS011;1521;53.584;9.938;2023-02-14T12:27:03;32.23;;;20.83;;
3022;SDS011;1521;53.584;9.938;2023-02-14T12:29:58;37.23;;;21.33;;
3022;SDS011;1521;53.584;9.938;2023-02-14T12:32:43;32.70;;;20.40;;
3022;SDS011;1521;53.584;9.938;2023-02-14T12:35:13;33.10;;;20.43;;
3022;SDS011;1521;53.584;9.938;2023-02-14T12:56:27;31.90;;;19.93;;
3022;SDS011;1521;53.584;9.938;2023-02-14T12:59:26;31.80;;;20.07;;
3022;SDS011;1521;53.584;9.938;2023-02-14T13:12:57;32.07;;;20.50;;
3022;SDS011;1521;53.584;9.938;2023-02-14T13:15:34;28.43;;;19.67;;
3022;SDS011;1521;53.584;9.938;2023-02-14T13:20:58;29.97;;;20.03;;
3022;SDS011;1521;53.584;9.938;2023-02-14T13:23:38;33.83;;;21.67;;
3022;SDS011;1521;53.584;9.938;2023-02-14T13:26:12;31.03;;;19.73;;
3022;SDS011;1521;53.584;9.938;2023-02-14T13:28:49;29.70;;;19.50;;
3022;SDS011;1521;53.584;9.938;2023-02-14T13:31:25;32.00;;;19.97;;
3022;SDS011;1521;53.584;9.938;2023-02-14T13:33:54;33.63;;;20.77;;
3022;SDS011;1521;53.584;9.938;2023-02-14T13:36:27;32.33;;;19.00;;
3022;SDS011;1521;53.584;9.938;2023-02-14T13:38:53;36.77;;;20.73;;
3022;SDS011;1521;53.584;9.938;2023-02-14T13:41:21;38.67;;;21.27;;
3022;SDS011;1521;53.584;9.938;2023-02-14T13:43:55;33.20;;;18.90;;
3022;SDS011;1521;53.584;9.938;2023-02-14T13:49:02;32.27;;;20.20;;
3022;SDS011;1521;53.584;9.938;2023-02-14T13:54:20;35.40;;;20.03;;
3022;SDS011;1521;53.584;9.938;2023-02-14T13:56:54;37.33;;;21.03;;
3022;SDS011;1521;53.584;9.938;2023-02-14T13:59:38;32.90;;;19.23;;
3022;SDS011;1521;53.584;9.938;2023-02-14T14:04:51;33.97;;;19.60;;
3022;SDS011;1521;53.584;9.938;2023-02-14T14:07:18;32.93;;;18.97;;
3022;SDS011;1521;53.584;9.938;2023-02-14T14:09:51;34.63;;;20.57;;
3022;SDS011;1521;53.584;9.938;2023-02-14T14:17:33;36.63;;;20.63;;
3022;SDS011;1521;53.584;9.938;2023-02-14T14:20:28;32.60;;;18.80;;
3022;SDS011;1521;53.584;9.938;2023-02-14T14:22:52;32.43;;;18.60;;
3022;SDS011;1521;53.584;9.938;2023-02-14T14:25:33;33.67;;;19.03;;
3022;SDS011;1521;53.584;9.938;2023-02-14T14:28:09;31.77;;;18.73;;
3022;SDS011;1521;53.584;9.938;2023-02-14T14:30:45;32.07;;;18.63;;
3022;SDS011;1521;53.584;9.938;2023-02-14T14:33:15;34.93;;;19.43;;
3022;SDS011;1521;53.584;9.938;2023-02-14T14:38:46;34.30;;;19.77;;
3022;SDS011;1521;53.584;9.938;2023-02-14T14:41:13;35.67;;;18.77;;
3022;SDS011;1521;53.584;9.938;2023-02-14T14:43:39;34.57;;;20.00;;
3022;SDS011;1521;53.584;9.938;2023-02-14T14:46:09;38.83;;;20.20;;
3022;SDS011;1521;53.584;9.938;2023-02-14T14:51:05;41.90;;;20.07;;
3022;SDS011;1521;53.584;9.938;2023-02-14T14:53:36;33.93;;;19.37;;
3022;SDS011;1521;53.584;9.938;2023-02-14T14:56:21;34.23;;;20.47;;
3022;SDS011;1521;53.584;9.938;2023-02-14T14:58:51;35.10;;;20.23;;
3022;SDS011;1521;53.584;9.938;2023-02-14T15:01:31;36.03;;;19.20;;
3022;SDS011;1521;53.584;9.938;2023-02-14T15:04:08;35.90;;;19.13;;
3022;SDS011;1521;53.584;9.938;2023-02-14T15:06:34;36.10;;;19.60;;
3022;SDS011;1521;53.584;9.938;2023-02-14T15:09:09;34.83;;;18.83;;
3022;SDS011;1521;53.584;9.938;2023-02-14T15:11:46;34.20;;;18.63;;
3022;SDS011;1521;53.584;9.938;2023-02-14T15:14:36;36.23;;;20.03;;
3022;SDS011;1521;53.584;9.938;2023-02-14T15:17:10;35.67;;;19.53;;
3022;SDS011;1521;53.584;9.938;2023-02-14T15:19:42;36.63;;;20.37;;
3022;SDS011;1521;53.584;9.938;2023-02-14T15:22:20;35.70;;;19.10;;
3022;SDS011;1521;53.584;9.938;2023-02-14T15:24:57;34.40;;;18.87;;
3022;SDS011;1521;53.584;9.938;2023-02-14T15:27:24;38.60;;;19.30;;
3022;SDS011;1521;53.584;9.938;2023-02-14T15:29:52;33.73;;;17.90;;
3022;SDS011;1521;53.584;9.938;2023-02-14T15:32:22;38.20;;;18.47;;
3022;SDS011;1521;53.584;9.938;2023-02-14T15:34:49;31.93;;;17.87;;
3022;SDS011;1521;53.584;9.938;2023-02-14T15:37:15;36.27;;;19.43;;
3022;SDS011;1521;53.584;9.938;2023-02-14T15:39:46;36.67;;;20.70;;
3022;SDS011;1521;53.584;9.938;2023-02-14T15:47:54;36.30;;;19.40;;
3022;SDS011;1521;53.584;9.938;2023-02-14T15:50:30;37.83;;;20.70;;
3022;SDS011;1521;53.584;9.938;2023-02-14T15:55:29;37.67;;;18.47;;
3022;SDS011;1521;53.584;9.938;2023-02-14T15:57:56;43.23;;;18.30;;
3022;SDS011;1521;53.584;9.938;2023-02-14T16:00:27;34.73;;;18.57;;
3022;SDS011;1521;53.584;9.938;2023-02-14T16:02:56;35.40;;;19.67;;
3022;SDS011;1521;53.584;9.938;2023-02-14T16:05:28;43.17;;;19.47;;
3022;SDS011;1521;53.584;9.938;2023-02-14T16:07:59;38.87;;;18.57;;
3022;SDS011;1521;53.584;9.938;2023-02-14T16:10:33;39.23;;;19.73;;
3022;SDS011;1521;53.584;9.938;2023-02-14T16:15:34;46.30;;;21.17;;
3022;SDS011;1521;53.584;9.938;2023-02-14T16:18:02;50.00;;;23.93;;
3022;SDS011;1521;53.584;9.938;2023-02-14T16:25:40;41.07;;;19.67;;
3022;SDS011;1521;53.584;9.938;2023-02-14T16:28:06;37.80;;;19.37;;
3022;SDS011;1521;53.584;9.938;2023-02-14T16:30:32;40.30;;;19.30;;
3022;SDS011;1521;53.584;9.938;2023-02-14T16:32:59;40.37;;;18.80;;
3022;SDS011;1521;53.584;9.938;2023-02-14T16:35:24;37.13;;;18.10;;
3022;SDS011;1521;53.584;9.938;2023-02-14T16:37:50;48.93;;;22.33;;
3022;SDS011;1521;53.584;9.938;2023-02-14T16:40:16;37.87;;;18.60;;
3022;SDS011;1521;53.584;9.938;2023-02-14T16:42:45;40.23;;;18.63;;
3022;SDS011;1521;53.584;9.938;2023-02-14T16:45:15;37.73;;;19.30;;
3022;SDS011;1521;53.584;9.938;2023-02-14T16:47:41;43.23;;;19.33;;
3022;SDS011;1521;53.584;9.938;2023-02-14T16:50:07;39.10;;;19.80;;
3022;SDS011;1521;53.584;9.938;2023-02-14T16:52:33;37.13;;;18.23;;
3022;SDS011;1521;53.584;9.938;2023-02-14T16:54:59;37.37;;;18.67;;
3022;SDS011;1521;53.584;9.938;2023-02-14T16:57:29;37.27;;;19.53;;
3022;SDS011;1521;53.584;9.938;2023-02-14T16:59:58;38.30;;;19.10;;
3022;SDS011;1521;53.584;9.938;2023-02-14T17:02:24;39.50;;;20.23;;
3022;SDS011;1521;53.584;9.938;2023-02-14T17:04:52;41.20;;;20.53;;
3022;SDS011;1521;53.584;9.938;2023-02-14T17:07:18;38.67;;;19.47;;
3022;SDS011;1521;53.584;9.938;2023-02-14T17:09:45;39.17;;;20.03;;
3022;SDS011;1521;53.584;9.938;2023-02-14T17:12:17;39.87;;;19.50;;
3022;SDS011;1521;53.584;9.938;2023-02-14T17:14:47;39.70;;;19.57;;
3022;SDS011;1521;53.584;9.938;2023-02-14T17:17:15;39.40;;;20.63;;
3022;SDS011;1521;53.584;9.938;2023-02-14T17:19:41;45.13;;;20.37;;
3022;SDS011;1521;53.584;9.938;2023-02-14T17:22:07;45.60;;;20.70;;
3022;SDS011;1521;53.584;9.938;2023-02-14T17:24:33;41.87;;;21.00;;
3022;SDS011;1521;53.584;9.938;2023-02-14T17:26:58;43.87;;;20.20;;
3022;SDS011;1521;53.584;9.938;2023-02-14T17:29:24;43.83;;;20.07;;
3022;SDS011;1521;53.584;9.938;2023-02-14T17:31:49;42.03;;;20.63;;
3022;SDS011;1521;53.584;9.938;2023-02-14T17:34:15;45.60;;;21.60;;
3022;SDS011;1521;53.584;9.938;2023-02-14T17:36:40;40.60;;;20.20;;